Terminal Aerodrome Forecast
Issued by NWS

Home | Current Version | Previous Version | Text Only | Print | Product List | Glossary On
Versions: 1 2 3 4 5 6 7 8 9 10 11 12
000
FTUS45 KABQ 021126
TAFLVS
TAF
KLVS 021126Z 0212/0312 05004KT P6SM BKN100
     FM021800 15009KT P6SM BKN080
     FM022000 16011KT P6SM VCSH BKN060
      TEMPO 0222/0302 4SM -TSRA OVC035CB
     FM030200 06009KT P6SM VCSH OVC050
     FM030700 05007KT P6SM BKN035=

USA.gov is the U.S. government's official web portal to all federal, state and local government web resources and services.